createdAt,value
2023-03-30T06:16:20.555Z,16.29
2023-03-30T06:27:03.791Z,17.09
2023-03-30T06:29:31.522Z,17.12
2023-03-30T06:31:59.262Z,17.32
2023-03-30T06:34:26.661Z,17.48
2023-03-30T06:36:54.046Z,17.51
2023-03-30T06:39:22.796Z,17.62
2023-03-30T06:41:50.155Z,17.76
2023-03-30T06:44:18.002Z,17.56
2023-03-30T06:46:45.373Z,17.78
2023-03-30T06:49:13.248Z,17.94
2023-03-30T06:51:42.045Z,17.71
2023-03-30T06:54:09.582Z,17.76
2023-03-30T06:56:36.966Z,17.92
2023-03-30T06:59:05.533Z,17.96
2023-03-30T07:01:33.662Z,17.91
2023-03-30T07:04:01.119Z,17.82
2023-03-30T07:06:28.532Z,17.76
2023-03-30T07:08:56.050Z,18.08
2023-03-30T07:11:23.605Z,18.02
2023-03-30T07:13:51.087Z,18.17
2023-03-30T07:16:18.543Z,18.25
2023-03-30T07:18:46.016Z,17.82
2023-03-30T07:21:14.347Z,17.92
2023-03-30T07:23:43.461Z,18.12
2023-03-30T07:26:12.120Z,18.23
2023-03-30T07:28:40.497Z,18.23
2023-03-30T07:31:13.880Z,18.45
2023-03-30T07:33:42.058Z,18.60
2023-03-30T07:36:10.232Z,18.87
2023-03-30T07:38:37.981Z,18.72
2023-03-30T07:41:13.261Z,18.45
2023-03-30T07:43:41.465Z,18.28
2023-03-30T07:46:12.535Z,18.60
2023-03-30T07:48:41.465Z,18.57
2023-03-30T07:51:14.001Z,18.56
2023-03-30T07:53:42.178Z,18.40
2023-03-30T07:56:10.582Z,18.73
2023-03-30T07:58:39.232Z,18.54
2023-03-30T08:01:06.919Z,18.42
2023-03-30T08:03:34.950Z,18.35
2023-03-30T08:06:05.606Z,18.48
2023-03-30T08:08:35.058Z,18.41
2023-03-30T08:11:02.820Z,18.50
2023-03-30T08:13:31.808Z,18.51
2023-03-30T08:15:59.405Z,18.44
2023-03-30T08:18:29.050Z,18.52
2023-03-30T08:20:56.888Z,18.21
2023-03-30T08:23:25.135Z,18.31
2023-03-30T08:25:56.101Z,18.09
2023-03-30T08:28:23.576Z,18.04
2023-03-30T08:30:51.356Z,17.98
2023-03-30T08:33:19.228Z,17.88
2023-03-30T08:35:48.139Z,17.62
2023-03-30T08:38:19.398Z,17.39
2023-03-30T08:40:51.047Z,17.09
2023-03-30T08:44:02.705Z,16.60
2023-03-30T08:46:30.974Z,16.55
2023-03-30T08:49:18.818Z,16.72
2023-03-30T08:51:50.018Z,16.71
2023-03-30T08:54:22.053Z,16.44
2023-03-30T08:58:02.879Z,16.74
2023-03-30T09:00:59.097Z,16.56
2023-03-30T09:03:52.079Z,16.79
2023-03-30T09:06:47.109Z,16.66
2023-03-30T09:09:24.931Z,17.01
2023-03-30T09:12:34.356Z,17.25
2023-03-30T09:15:52.423Z,17.41
2023-03-30T09:18:31.885Z,17.80
2023-03-30T09:21:11.084Z,17.65
2023-03-30T09:23:40.059Z,17.86
2023-03-30T09:27:04.572Z,17.91
2023-03-30T09:29:53.461Z,17.84
2023-03-30T09:32:38.050Z,18.01
2023-03-30T09:35:24.997Z,18.03
2023-03-30T09:37:52.448Z,18.24
2023-03-30T09:41:35.300Z,18.34
2023-03-30T09:44:03.046Z,18.27
2023-03-30T09:46:31.078Z,18.35
2023-03-30T09:49:17.369Z,18.30
2023-03-30T09:52:08.504Z,18.18
2023-03-30T09:54:41.793Z,18.31
2023-03-30T09:57:32.983Z,18.23
2023-03-30T10:00:21.809Z,18.27
2023-03-30T10:03:03.722Z,18.30
2023-03-30T10:05:37.958Z,18.27
2023-03-30T10:08:22.934Z,18.26
2023-03-30T10:10:58.479Z,18.04
2023-03-30T10:13:42.245Z,18.13
2023-03-30T10:16:33.429Z,18.22
2023-03-30T10:19:16.831Z,18.12
2023-03-30T10:21:47.073Z,18.28
2023-03-30T10:24:14.413Z,18.23
2023-03-30T10:26:47.427Z,18.22
2023-03-30T10:29:22.903Z,17.98
2023-03-30T10:32:16.284Z,18.18
2023-03-30T10:35:01.976Z,18.23
2023-03-30T10:37:42.940Z,18.33
2023-03-30T10:40:40.966Z,18.31
2023-03-30T10:43:32.999Z,18.40
2023-03-30T10:46:30.382Z,18.13
2023-03-30T10:49:54.242Z,18.24
2023-03-30T10:53:03.876Z,18.06
2023-03-30T10:56:22.064Z,18.17
2023-03-30T10:59:49.523Z,18.17
2023-03-30T11:03:03.791Z,18.19
2023-03-30T11:05:46.285Z,18.26
2023-03-30T11:08:38.286Z,18.38
2023-03-30T11:11:07.299Z,17.68
2023-03-30T11:13:43.975Z,17.17
2023-03-30T11:16:31.608Z,17.42
2023-03-30T11:19:39.978Z,17.29
2023-03-30T11:22:47.418Z,17.41
2023-03-30T11:25:29.851Z,17.41
2023-03-30T11:29:17.192Z,17.49
2023-03-30T11:32:17.453Z,17.49
2023-03-30T11:35:31.767Z,17.05
2023-03-30T11:38:23.543Z,16.96
2023-03-30T11:41:33.898Z,16.62
2023-03-30T11:44:01.857Z,16.63
2023-03-30T11:47:14.794Z,16.42
2023-03-30T11:50:30.282Z,16.70
2023-03-30T11:53:45.922Z,16.61
2023-03-30T11:57:00.543Z,16.93
2023-03-30T12:00:41.116Z,17.17
2023-03-30T12:03:45.188Z,16.98
2023-03-30T12:07:00.663Z,17.35
2023-03-30T12:09:54.608Z,17.76
2023-03-30T12:12:39.369Z,17.61
2023-03-30T12:15:16.044Z,17.86
2023-03-30T12:18:02.990Z,17.82
2023-03-30T12:21:16.672Z,17.75
2023-03-30T12:23:54.678Z,18.46
2023-03-30T12:26:34.361Z,18.51
2023-03-30T12:29:48.096Z,18.58
2023-03-30T12:32:03.304Z,19.16
2023-03-30T12:34:41.652Z,19.43
2023-03-30T12:37:38.218Z,20.35
2023-03-30T12:40:26.211Z,20.52
2023-03-30T12:43:24.104Z,20.46
2023-03-30T12:46:45.323Z,20.60
2023-03-30T12:50:04.401Z,20.95
2023-03-30T12:53:32.284Z,19.93
2023-03-30T12:56:22.624Z,19.80
2023-03-30T12:59:42.963Z,20.40
2023-03-30T13:03:12.443Z,20.26
2023-03-30T13:05:45.041Z,19.71
2023-03-30T13:08:38.415Z,20.00
2023-03-30T13:11:22.798Z,20.93
2023-03-30T13:14:11.320Z,22.21
2023-03-30T13:17:20.502Z,22.80
2023-03-30T13:20:29.224Z,23.16
2023-03-30T13:23:32.432Z,22.83
2023-03-30T13:26:34.616Z,23.01
2023-03-30T13:29:17.236Z,22.26
2023-03-30T13:32:41.450Z,22.71
2023-03-30T13:36:04.528Z,22.67
2023-03-30T13:40:01.434Z,23.33
2023-03-30T13:43:20.126Z,22.71
2023-03-30T13:46:45.206Z,23.05
2023-03-30T13:49:58.071Z,22.56
2023-03-30T13:52:41.345Z,22.61
2023-03-30T13:55:37.282Z,23.16
2023-03-30T13:58:30.837Z,23.22
2023-03-30T14:01:10.711Z,22.83
2023-03-30T14:04:00.942Z,23.06
2023-03-30T14:06:34.550Z,23.39
2023-03-30T14:09:07.698Z,22.66
2023-03-30T14:11:45.605Z,23.67
2023-03-30T14:14:47.398Z,23.25
2023-03-30T14:17:22.700Z,23.42
2023-03-30T14:20:45.628Z,24.42
2023-03-30T14:23:32.513Z,24.93
2023-03-30T14:26:18.575Z,23.95
2023-03-30T14:28:46.972Z,24.78
2023-03-30T14:31:22.328Z,23.28
2023-03-30T14:33:50.104Z,23.56
2023-03-30T14:36:20.691Z,23.09
2023-03-30T14:38:53.956Z,22.76
2023-03-30T14:41:28.407Z,22.71
2023-03-30T14:44:07.550Z,22.28
2023-03-30T14:46:50.067Z,22.57
2023-03-30T14:49:32.706Z,22.05
2023-03-30T14:52:27.526Z,21.75
2023-03-30T14:55:05.097Z,22.30
2023-03-30T14:57:40.537Z,23.16
2023-03-30T15:00:23.001Z,22.56
2023-03-30T15:03:01.651Z,22.25
2023-03-30T15:05:43.004Z,22.01
2023-03-30T15:08:27.930Z,21.70
2023-03-30T15:11:21.617Z,22.91
2023-03-30T15:14:03.990Z,22.17
2023-03-30T15:16:34.063Z,22.28
2023-03-30T15:19:24.512Z,22.02
2023-03-30T15:21:54.712Z,22.68
2023-03-30T15:24:32.361Z,21.54
2023-03-30T15:27:06.789Z,20.88
2023-03-30T15:29:34.655Z,21.12
2023-03-30T15:32:26.082Z,20.79
2023-03-30T15:35:16.019Z,20.98
2023-03-30T15:38:04.361Z,20.93
2023-03-30T15:40:39.129Z,21.00
2023-03-30T15:43:21.558Z,21.71
2023-03-30T15:46:04.626Z,21.48
2023-03-30T15:48:45.960Z,21.36
2023-03-30T15:51:43.636Z,21.75
2023-03-30T15:54:22.674Z,21.60
2023-03-30T15:57:18.099Z,21.85
2023-03-30T15:59:51.244Z,21.84
2023-03-30T16:02:40.426Z,22.11
2023-03-30T16:05:22.841Z,22.16
2023-03-30T16:07:50.717Z,22.34
2023-03-30T16:10:28.275Z,22.20
2023-03-30T16:12:58.443Z,21.92
2023-03-30T16:15:37.891Z,22.56
2023-03-30T16:18:13.346Z,23.01
2023-03-30T16:20:40.870Z,21.93
2023-03-30T16:23:09.335Z,21.45
2023-03-30T16:25:44.692Z,21.37
2023-03-30T16:28:21.859Z,21.67
2023-03-30T16:30:55.529Z,21.49
2023-03-30T16:33:24.520Z,21.53
2023-03-30T16:35:52.145Z,21.56
2023-03-30T16:38:19.834Z,21.58
2023-03-30T16:40:58.662Z,21.28
2023-03-30T16:43:27.388Z,20.33
2023-03-30T16:45:55.119Z,20.67
2023-03-30T16:48:24.365Z,21.14
2023-03-30T16:50:57.140Z,21.20
2023-03-30T16:53:24.942Z,21.29
2023-03-30T16:55:52.360Z,20.97
2023-03-30T16:58:19.761Z,21.08
2023-03-30T17:00:53.247Z,21.12
2023-03-30T17:03:20.970Z,21.60
2023-03-30T17:05:49.071Z,21.41
2023-03-30T17:08:27.595Z,21.51
2023-03-30T17:11:05.226Z,20.89
2023-03-30T17:13:32.969Z,20.99
2023-03-30T17:16:02.953Z,20.91
2023-03-30T17:18:32.108Z,20.89
2023-03-30T17:21:03.207Z,20.85
2023-03-30T17:23:33.124Z,20.65
2023-03-30T17:26:02.556Z,20.40
2023-03-30T17:28:35.617Z,20.34
2023-03-30T17:31:12.174Z,20.63
2023-03-30T17:33:39.968Z,20.83
2023-03-30T17:36:23.237Z,20.60
2023-03-30T17:38:51.923Z,20.86
2023-03-30T17:41:20.795Z,20.94
2023-03-30T17:43:49.079Z,20.70
2023-03-30T17:46:19.775Z,20.53
2023-03-30T17:48:47.682Z,20.74
2023-03-30T17:51:15.117Z,20.22
2023-03-30T17:53:43.758Z,20.48
2023-03-30T17:56:14.563Z,20.11
2023-03-30T17:58:42.056Z,20.22
2023-03-30T18:01:12.437Z,20.26
2023-03-30T18:03:40.842Z,20.40
2023-03-30T18:06:11.795Z,20.30
2023-03-30T18:08:39.771Z,20.32
2023-03-30T18:11:07.467Z,20.14
2023-03-30T18:13:35.142Z,20.41
2023-03-30T18:16:02.786Z,19.96
2023-03-30T18:18:32.119Z,20.14
2023-03-30T18:21:06.333Z,19.87
2023-03-30T18:23:35.171Z,20.03
2023-03-30T18:26:10.262Z,20.00
2023-03-30T18:28:42.524Z,20.09
2023-03-30T18:31:10.370Z,19.96
2023-03-30T18:33:39.438Z,20.08
2023-03-30T18:36:13.270Z,19.91
2023-03-30T18:38:41.379Z,19.65
2023-03-30T18:41:13.301Z,19.85
2023-03-30T18:43:40.741Z,19.57
2023-03-30T18:46:12.773Z,19.71
2023-03-30T18:48:40.465Z,19.38
2023-03-30T18:51:11.940Z,19.34
2023-03-30T18:53:39.562Z,19.57
2023-03-30T18:56:07.483Z,19.50
2023-03-30T18:58:42.425Z,19.98
2023-03-30T19:01:12.963Z,19.85
2023-03-30T19:03:40.756Z,19.69
2023-03-30T19:06:24.547Z,19.60
2023-03-30T19:08:52.072Z,19.82
2023-03-30T19:11:24.456Z,19.81
2023-03-30T19:13:52.564Z,19.73
2023-03-30T19:16:21.111Z,19.75
2023-03-30T19:18:49.598Z,19.77
2023-03-30T19:21:18.203Z,19.73
2023-03-30T19:23:45.870Z,19.48
2023-03-30T19:26:13.392Z,19.45
2023-03-30T19:28:40.867Z,19.63
2023-03-30T19:31:15.678Z,19.52
2023-03-30T19:33:44.775Z,19.58
2023-03-30T19:36:12.385Z,19.65
2023-03-30T19:38:41.814Z,19.48
2023-03-30T19:41:09.446Z,19.41
2023-03-30T19:43:36.872Z,19.63
2023-03-30T19:46:05.123Z,19.50
2023-03-30T19:48:32.591Z,19.32
2023-03-30T19:50:59.967Z,19.68
2023-03-30T19:53:27.381Z,19.62
2023-03-30T19:55:54.914Z,19.50
2023-03-30T19:58:22.298Z,19.62
2023-03-30T20:00:51.249Z,19.55
2023-03-30T20:03:18.739Z,19.61
2023-03-30T20:05:50.780Z,19.65
2023-03-30T20:08:24.521Z,19.56
2023-03-30T20:10:53.380Z,19.58
2023-03-30T20:13:22.249Z,19.53
2023-03-30T20:15:55.152Z,19.65
2023-03-30T20:18:23.763Z,19.78
2023-03-30T20:20:51.436Z,19.72
2023-03-30T20:23:18.819Z,19.66
2023-03-30T20:25:49.482Z,19.57
2023-03-30T20:28:17.958Z,19.64
2023-03-30T20:30:45.625Z,19.54
2023-03-30T20:33:13.478Z,19.41
2023-03-30T20:35:41.077Z,19.45
2023-03-30T20:38:08.677Z,19.38
2023-03-30T20:40:36.211Z,19.48
2023-03-30T20:43:03.827Z,19.20
2023-03-30T20:45:32.272Z,19.25
2023-03-30T20:48:06.293Z,19.01
2023-03-30T20:50:35.073Z,19.25
2023-03-30T20:53:02.694Z,19.08
2023-03-30T20:55:30.069Z,19.29
2023-03-30T20:57:57.508Z,19.27
2023-03-30T21:00:25.059Z,19.11
2023-03-30T21:02:52.622Z,19.45
2023-03-30T21:05:20.133Z,19.30
2023-03-30T21:07:48.600Z,19.31
2023-03-30T21:10:16.601Z,19.28
2023-03-30T21:12:44.089Z,19.14
2023-03-30T21:15:12.114Z,19.13
2023-03-30T21:17:39.569Z,19.30
2023-03-30T21:20:09.402Z,19.33
2023-03-30T21:22:37.037Z,19.22
2023-03-30T21:25:04.947Z,19.35
2023-03-30T21:27:32.334Z,19.37
2023-03-30T21:29:59.722Z,19.32
2023-03-30T21:32:28.660Z,19.30
2023-03-30T21:34:57.546Z,19.24
2023-03-30T21:37:25.003Z,19.37
2023-03-30T21:39:52.744Z,19.25
2023-03-30T21:42:20.124Z,19.07
2023-03-30T21:44:47.521Z,19.26
2023-03-30T21:47:16.760Z,19.15
2023-03-30T21:49:44.188Z,19.09
2023-03-30T21:52:11.921Z,19.16
2023-03-30T21:54:39.525Z,18.93
2023-03-30T21:57:07.023Z,19.16
2023-03-30T21:59:34.614Z,18.80
2023-03-30T22:02:02.066Z,18.82
2023-03-30T22:04:29.456Z,18.74
2023-03-30T22:06:57.313Z,18.76
2023-03-30T22:09:24.751Z,18.60
2023-03-30T22:11:54.156Z,18.58
2023-03-30T22:14:22.792Z,18.51
2023-03-30T22:16:50.316Z,18.56
2023-03-30T22:19:19.098Z,18.38
2023-03-30T22:21:46.584Z,18.49
2023-03-30T22:24:13.968Z,18.71
2023-03-30T22:26:41.863Z,18.25
2023-03-30T22:29:09.308Z,18.52
2023-03-30T22:31:36.723Z,18.68
2023-03-30T22:34:04.688Z,18.87
2023-03-30T22:36:32.313Z,18.81
2023-03-30T22:39:02.529Z,18.73
2023-03-30T22:41:30.194Z,18.71
2023-03-30T22:43:59.037Z,18.73
2023-03-30T22:46:28.063Z,18.58
2023-03-30T22:48:56.237Z,18.78
2023-03-30T22:51:28.484Z,18.75
2023-03-30T22:53:59.474Z,18.85
2023-03-30T22:56:29.671Z,18.83
2023-03-30T22:58:59.979Z,18.91
2023-03-30T23:01:29.257Z,18.92
2023-03-30T23:03:59.704Z,18.88
2023-03-30T23:06:27.585Z,18.96
2023-03-30T23:08:55.098Z,19.02
2023-03-30T23:11:22.564Z,19.01
2023-03-30T23:13:50.099Z,18.96
2023-03-30T23:16:18.046Z,18.84
2023-03-30T23:18:45.505Z,19.01
2023-03-30T23:21:14.151Z,19.02
2023-03-30T23:23:41.971Z,19.06
2023-03-30T23:26:11.599Z,19.02
2023-03-30T23:28:42.783Z,18.92
2023-03-30T23:31:16.643Z,18.96
2023-03-30T23:33:44.741Z,19.07
2023-03-30T23:36:19.382Z,18.95
2023-03-30T23:38:47.467Z,18.91
2023-03-30T23:41:19.566Z,18.89
2023-03-30T23:43:47.957Z,18.86
2023-03-30T23:46:16.130Z,18.01
2023-03-30T23:48:43.757Z,17.28
2023-03-30T23:51:12.390Z,16.34
2023-03-30T23:53:40.431Z,16.44
2023-03-30T23:56:13.948Z,16.33
2023-03-30T23:58:41.674Z,16.47
